createdAt,value
2018-11-25T00:00:01.162Z,4.83
2018-11-25T00:01:52.993Z,4.90
2018-11-25T00:02:52.934Z,4.93
2018-11-25T00:04:44.742Z,4.94
2018-11-25T00:05:44.807Z,4.93
2018-11-25T00:07:36.513Z,4.90
2018-11-25T00:08:36.406Z,4.86
2018-11-25T00:10:28.218Z,4.88
2018-11-25T00:11:28.148Z,4.93
2018-11-25T00:13:20.020Z,4.87
2018-11-25T00:14:19.889Z,4.93
2018-11-25T00:16:11.724Z,4.88
2018-11-25T00:17:11.576Z,4.86
2018-11-25T00:19:03.499Z,4.88
2018-11-25T00:20:03.315Z,4.84
2018-11-25T00:21:55.122Z,4.87
2018-11-25T00:22:55.025Z,4.83
2018-11-25T00:24:46.824Z,4.93
2018-11-25T00:25:46.771Z,4.94
2018-11-25T00:27:38.631Z,4.93
2018-11-25T00:28:38.477Z,4.88
2018-11-25T00:30:30.278Z,4.91
2018-11-25T00:31:30.271Z,4.91
2018-11-25T00:33:22.005Z,4.88
2018-11-25T00:34:21.920Z,4.91
2018-11-25T00:36:13.753Z,4.91
2018-11-25T00:37:13.617Z,4.87
2018-11-25T00:39:05.506Z,5.01
2018-11-25T00:40:05.334Z,4.96
2018-11-25T00:41:57.322Z,4.97
2018-11-25T00:42:57.168Z,4.96
2018-11-25T00:44:49.010Z,4.93
2018-11-25T00:45:48.942Z,4.94
2018-11-25T00:47:40.748Z,4.90
2018-11-25T00:48:40.664Z,4.88
2018-11-25T00:50:32.462Z,4.91
2018-11-25T00:51:32.410Z,4.87
2018-11-25T00:53:24.197Z,4.93
2018-11-25T00:54:24.133Z,4.87
2018-11-25T00:56:15.869Z,4.93
2018-11-25T00:57:15.811Z,4.80
2018-11-25T00:59:08.595Z,4.87
2018-11-25T01:00:07.495Z,4.80
2018-11-25T01:01:59.283Z,4.84
2018-11-25T01:02:59.193Z,4.86
2018-11-25T01:04:51.067Z,4.87
2018-11-25T01:05:50.940Z,4.87
2018-11-25T01:07:42.741Z,4.79
2018-11-25T01:08:42.644Z,4.80
2018-11-25T01:10:34.476Z,4.83
2018-11-25T01:11:34.382Z,4.84
2018-11-25T01:13:26.211Z,4.77
2018-11-25T01:14:26.181Z,4.80
2018-11-25T01:16:17.863Z,4.83
2018-11-25T01:17:17.792Z,4.80
2018-11-25T01:19:10.187Z,4.80
2018-11-25T01:20:10.141Z,4.77
2018-11-25T01:22:01.998Z,4.75
2018-11-25T01:23:01.896Z,4.72
2018-11-25T01:24:53.630Z,4.67
2018-11-25T01:25:53.490Z,4.65
2018-11-25T01:27:45.317Z,4.62
2018-11-25T01:28:45.168Z,4.57
2018-11-25T01:30:37.185Z,4.61
2018-11-25T01:31:37.066Z,4.51
2018-11-25T01:33:29.045Z,4.59
2018-11-25T01:34:28.869Z,4.51
2018-11-25T01:36:20.699Z,4.50
2018-11-25T01:37:20.568Z,4.39
2018-11-25T01:39:12.405Z,4.50
2018-11-25T01:40:12.276Z,4.44
2018-11-25T01:42:04.043Z,4.49
2018-11-25T01:43:03.990Z,4.44
2018-11-25T01:44:55.777Z,4.56
2018-11-25T01:45:55.686Z,4.56
2018-11-25T01:47:47.640Z,4.49
2018-11-25T01:48:47.540Z,4.50
2018-11-25T01:50:39.372Z,4.59
2018-11-25T01:51:39.317Z,4.56
2018-11-25T01:53:31.201Z,4.62
2018-11-25T01:54:31.116Z,4.59
2018-11-25T01:56:22.949Z,4.67
2018-11-25T01:57:22.844Z,4.59
2018-11-25T01:59:14.742Z,4.64
2018-11-25T02:00:14.575Z,4.68
2018-11-25T02:02:06.445Z,4.72
2018-11-25T02:03:06.355Z,4.74
2018-11-25T02:04:58.241Z,4.69
2018-11-25T02:05:58.048Z,4.69
2018-11-25T02:07:49.870Z,4.77
2018-11-25T02:08:49.794Z,4.68
2018-11-25T02:10:41.585Z,4.71
2018-11-25T02:11:41.496Z,4.74
2018-11-25T02:13:33.343Z,4.74
2018-11-25T02:14:33.183Z,4.71
2018-11-25T02:16:25.012Z,4.68
2018-11-25T02:17:24.905Z,4.72
2018-11-25T02:19:16.849Z,4.74
2018-11-25T02:20:16.735Z,4.69
2018-11-25T02:22:08.567Z,4.77
2018-11-25T02:23:08.441Z,4.75
2018-11-25T02:25:00.339Z,4.83
2018-11-25T02:26:00.210Z,4.74
2018-11-25T02:27:52.042Z,4.80
2018-11-25T02:28:51.983Z,4.69
2018-11-25T02:30:43.754Z,4.77
2018-11-25T02:31:43.689Z,4.71
2018-11-25T02:33:35.463Z,4.75
2018-11-25T02:34:35.384Z,4.79
2018-11-25T02:36:27.165Z,4.80
2018-11-25T02:37:27.045Z,4.87
2018-11-25T02:39:18.860Z,4.79
2018-11-25T02:40:18.759Z,4.84
2018-11-25T02:42:10.544Z,4.74
2018-11-25T02:43:10.482Z,4.74
2018-11-25T02:45:02.294Z,4.74
2018-11-25T02:46:02.170Z,4.75
2018-11-25T02:47:53.963Z,4.71
2018-11-25T02:48:53.887Z,4.75
2018-11-25T02:50:45.696Z,4.72
2018-11-25T02:51:45.650Z,4.77
2018-11-25T02:53:37.384Z,4.69
2018-11-25T02:54:37.301Z,4.75
2018-11-25T02:56:29.186Z,4.74
2018-11-25T02:57:29.019Z,4.72
2018-11-25T02:59:20.911Z,4.77
2018-11-25T03:00:20.792Z,4.75
2018-11-25T03:02:12.620Z,4.67
2018-11-25T03:03:12.546Z,4.69
2018-11-25T03:05:04.535Z,4.74
2018-11-25T03:06:04.501Z,4.75
2018-11-25T03:07:56.277Z,4.86
2018-11-25T03:08:56.164Z,4.77
2018-11-25T03:10:47.945Z,4.79
2018-11-25T03:11:47.899Z,4.77
2018-11-25T03:13:39.629Z,4.75
2018-11-25T03:14:39.572Z,4.83
2018-11-25T03:16:31.356Z,4.74
2018-11-25T03:17:31.267Z,4.77
2018-11-25T03:19:23.077Z,4.79
2018-11-25T03:20:23.006Z,4.84
2018-11-25T03:22:14.836Z,4.74
2018-11-25T03:23:14.759Z,4.72
2018-11-25T03:25:06.657Z,4.75
2018-11-25T03:26:06.502Z,4.72
2018-11-25T03:27:58.359Z,4.68
2018-11-25T03:28:58.217Z,4.74
2018-11-25T03:30:50.002Z,4.67
2018-11-25T03:31:50.048Z,4.74
2018-11-25T03:33:41.732Z,4.68
2018-11-25T03:34:41.657Z,4.67
2018-11-25T03:36:33.443Z,4.69
2018-11-25T03:37:33.318Z,4.72
2018-11-25T03:39:25.194Z,4.75
2018-11-25T03:40:25.100Z,4.72
2018-11-25T03:42:16.884Z,4.74
2018-11-25T03:43:16.798Z,4.77
2018-11-25T03:45:08.607Z,4.72
2018-11-25T03:46:08.546Z,4.71
2018-11-25T03:48:00.397Z,4.71
2018-11-25T03:49:00.226Z,4.74
2018-11-25T03:50:52.059Z,4.74
2018-11-25T03:51:51.961Z,4.74
2018-11-25T03:53:43.714Z,4.79
2018-11-25T03:54:43.683Z,4.80
2018-11-25T03:56:35.472Z,4.79
2018-11-25T03:57:35.359Z,4.86
2018-11-25T03:59:27.173Z,4.87
2018-11-25T04:00:27.091Z,4.77
2018-11-25T04:02:18.819Z,4.80
2018-11-25T04:03:18.774Z,4.77
2018-11-25T04:05:10.572Z,4.86
2018-11-25T04:06:10.477Z,4.93
2018-11-25T04:08:02.260Z,4.83
2018-11-25T04:09:02.155Z,4.79
2018-11-25T04:10:53.927Z,4.77
2018-11-25T04:11:53.954Z,4.79
2018-11-25T04:13:45.630Z,4.77
2018-11-25T04:14:45.568Z,4.75
2018-11-25T04:16:37.340Z,4.79
2018-11-25T04:17:37.235Z,4.84
2018-11-25T04:19:29.074Z,4.84
2018-11-25T04:20:28.984Z,4.83
2018-11-25T04:22:20.848Z,4.87
2018-11-25T04:23:20.706Z,4.87
2018-11-25T04:25:12.590Z,4.94
2018-11-25T04:26:12.454Z,4.90
2018-11-25T04:28:04.300Z,4.87
2018-11-25T04:29:04.196Z,4.91
2018-11-25T04:30:55.974Z,4.86
2018-11-25T04:31:55.886Z,4.87
2018-11-25T04:33:47.681Z,4.86
2018-11-25T04:34:47.587Z,4.88
2018-11-25T04:36:39.390Z,4.83
2018-11-25T04:37:39.285Z,4.87
2018-11-25T04:39:31.158Z,4.97
2018-11-25T04:40:31.054Z,4.93
2018-11-25T04:42:22.888Z,5.01
2018-11-25T04:43:22.780Z,4.96
2018-11-25T04:45:14.560Z,5.05
2018-11-25T04:46:14.476Z,4.94
2018-11-25T04:48:06.452Z,4.96
2018-11-25T04:49:06.273Z,4.96
2018-11-25T04:50:58.091Z,4.93
2018-11-25T04:51:58.011Z,4.94
2018-11-25T04:53:49.834Z,4.90
2018-11-25T04:54:49.708Z,4.93
2018-11-25T04:56:41.473Z,4.93
2018-11-25T04:57:41.407Z,4.87
2018-11-25T04:59:33.315Z,4.99
2018-11-25T05:00:33.089Z,4.94
2018-11-25T05:02:24.874Z,4.94
2018-11-25T05:03:24.814Z,4.88
2018-11-25T05:05:16.570Z,4.94
2018-11-25T05:06:16.479Z,4.96
2018-11-25T05:08:08.280Z,4.96
2018-11-25T05:09:08.219Z,5.01
2018-11-25T05:10:59.943Z,4.97
2018-11-25T05:11:59.888Z,4.93
2018-11-25T05:13:51.652Z,4.91
2018-11-25T05:14:51.550Z,5.05
2018-11-25T05:16:43.306Z,4.96
2018-11-25T05:17:43.277Z,4.93
2018-11-25T05:19:34.982Z,4.90
2018-11-25T05:20:34.933Z,4.93
2018-11-25T05:22:26.811Z,5.06
2018-11-25T05:23:26.692Z,4.97
2018-11-25T05:25:18.501Z,4.99
2018-11-25T05:26:18.422Z,4.93
2018-11-25T05:28:10.374Z,4.91
2018-11-25T05:29:10.285Z,4.96
2018-11-25T05:31:02.078Z,5.04
2018-11-25T05:32:01.997Z,5.09
2018-11-25T05:33:53.769Z,5.05
2018-11-25T05:34:53.682Z,4.84
2018-11-25T05:36:45.458Z,4.87
2018-11-25T05:37:45.369Z,4.93
2018-11-25T05:39:37.171Z,4.86
2018-11-25T05:40:37.038Z,4.80
2018-11-25T05:42:28.813Z,4.87
2018-11-25T05:43:28.712Z,4.87
2018-11-25T05:45:20.562Z,4.88
2018-11-25T05:46:20.456Z,4.87
2018-11-25T05:48:12.300Z,4.91
2018-11-25T05:49:12.216Z,4.88
2018-11-25T05:51:03.958Z,4.84
2018-11-25T05:52:03.899Z,4.88
2018-11-25T05:53:55.708Z,4.88
2018-11-25T05:54:55.616Z,4.88
2018-11-25T05:56:47.537Z,4.93
2018-11-25T05:57:47.383Z,4.91
2018-11-25T05:59:39.152Z,4.86
2018-11-25T06:00:39.074Z,4.93
2018-11-25T06:02:30.852Z,4.93
2018-11-25T06:03:30.776Z,4.90
2018-11-25T06:05:22.636Z,4.94
2018-11-25T06:06:22.558Z,4.94
2018-11-25T06:08:14.364Z,4.90
2018-11-25T06:09:14.252Z,4.91
2018-11-25T06:11:06.067Z,4.86
2018-11-25T06:12:05.919Z,4.90
2018-11-25T06:13:57.734Z,4.96
2018-11-25T06:14:57.648Z,4.94
2018-11-25T06:16:49.386Z,5.04
2018-11-25T06:17:49.310Z,4.96
2018-11-25T06:19:41.084Z,4.94
2018-11-25T06:20:41.005Z,4.88
2018-11-25T06:22:32.758Z,4.96
2018-11-25T06:23:32.680Z,4.91
2018-11-25T06:25:24.496Z,4.94
2018-11-25T06:26:24.432Z,4.91
2018-11-25T06:28:16.192Z,5.05
2018-11-25T06:29:16.122Z,4.96
2018-11-25T06:31:07.888Z,5.06
2018-11-25T06:32:07.815Z,5.09
2018-11-25T06:33:59.657Z,5.04
2018-11-25T06:34:59.566Z,5.08
2018-11-25T06:36:51.322Z,5.09
2018-11-25T06:37:51.337Z,5.06
2018-11-25T06:39:43.076Z,5.06
2018-11-25T06:40:42.961Z,5.02
2018-11-25T06:42:34.833Z,5.01
2018-11-25T06:43:34.637Z,5.04
2018-11-25T06:45:26.438Z,4.93
2018-11-25T06:46:26.323Z,4.91
2018-11-25T06:48:18.050Z,4.90
2018-11-25T06:49:18.032Z,4.94
2018-11-25T06:51:09.764Z,4.93
2018-11-25T06:52:09.689Z,4.88
2018-11-25T06:54:01.535Z,5.06
2018-11-25T06:55:01.450Z,5.02
2018-11-25T06:56:53.267Z,5.04
2018-11-25T06:57:53.109Z,5.09
2018-11-25T06:59:44.902Z,5.05
2018-11-25T07:00:44.818Z,5.04
2018-11-25T07:02:36.812Z,5.08
2018-11-25T07:03:36.574Z,5.01
2018-11-25T07:05:28.324Z,5.08
2018-11-25T07:06:28.265Z,5.05
2018-11-25T07:08:20.050Z,5.11
2018-11-25T07:09:19.941Z,5.06
2018-11-25T07:11:11.709Z,5.04
2018-11-25T07:12:11.622Z,5.05
2018-11-25T07:14:03.383Z,5.05
2018-11-25T07:15:03.286Z,5.04
2018-11-25T07:16:55.117Z,5.06
2018-11-25T07:17:55.039Z,5.08
2018-11-25T07:19:46.876Z,5.04
2018-11-25T07:20:46.749Z,5.05
2018-11-25T07:22:38.559Z,5.06
2018-11-25T07:23:38.438Z,5.09
2018-11-25T07:25:30.294Z,5.06
2018-11-25T07:26:30.182Z,5.05
2018-11-25T07:28:22.021Z,5.02
2018-11-25T07:29:21.975Z,5.11
2018-11-25T07:31:13.755Z,5.04
2018-11-25T07:32:13.599Z,5.11
2018-11-25T07:34:05.367Z,5.11
2018-11-25T07:35:05.300Z,5.14
2018-11-25T07:36:57.128Z,5.15
2018-11-25T07:37:57.005Z,5.19
2018-11-25T07:39:48.804Z,5.15
2018-11-25T07:40:48.730Z,5.17
2018-11-25T07:42:40.513Z,5.22
2018-11-25T07:43:40.394Z,5.22
2018-11-25T07:45:32.220Z,5.22
2018-11-25T07:46:32.111Z,5.29
2018-11-25T07:48:23.928Z,5.26
2018-11-25T07:49:23.756Z,5.27
2018-11-25T07:51:15.541Z,5.26
2018-11-25T07:52:15.696Z,5.30
2018-11-25T07:54:07.264Z,5.29
2018-11-25T07:55:07.148Z,5.30
2018-11-25T07:56:59.033Z,5.35
2018-11-25T07:57:58.916Z,5.33
2018-11-25T07:59:50.797Z,5.29
2018-11-25T08:00:50.600Z,5.29
2018-11-25T08:02:42.417Z,5.40
2018-11-25T08:03:42.332Z,5.32
2018-11-25T08:05:34.168Z,5.30
2018-11-25T08:06:34.085Z,5.38
2018-11-25T08:08:25.923Z,5.42
2018-11-25T08:09:25.823Z,5.38
2018-11-25T08:11:17.597Z,5.37
2018-11-25T08:12:17.505Z,5.24
2018-11-25T08:14:09.269Z,5.45
2018-11-25T08:15:09.192Z,5.47
2018-11-25T08:17:01.032Z,5.41
2018-11-25T08:18:00.911Z,5.45
2018-11-25T08:19:52.834Z,5.41
2018-11-25T08:20:52.657Z,5.40
2018-11-25T08:22:44.414Z,5.51
2018-11-25T08:23:44.333Z,5.49
2018-11-25T08:25:36.112Z,5.59
2018-11-25T08:26:36.028Z,5.55
2018-11-25T08:28:27.777Z,5.63
2018-11-25T08:29:27.681Z,5.59
2018-11-25T08:31:19.473Z,5.73
2018-11-25T08:32:19.383Z,5.66
2018-11-25T08:34:11.180Z,5.66
2018-11-25T08:35:11.122Z,5.66
2018-11-25T08:37:03.003Z,5.65
2018-11-25T08:38:02.884Z,5.66
2018-11-25T08:39:54.650Z,5.74
2018-11-25T08:40:54.641Z,5.80
2018-11-25T08:42:46.375Z,5.78
2018-11-25T08:43:46.224Z,5.80
2018-11-25T08:45:38.013Z,5.90
2018-11-25T08:46:37.934Z,5.90
2018-11-25T08:48:29.775Z,5.84
2018-11-25T08:49:29.648Z,5.88
2018-11-25T08:51:21.530Z,5.88
2018-11-25T08:52:21.460Z,5.98
2018-11-25T08:54:13.228Z,5.96
2018-11-25T08:55:13.141Z,5.93
2018-11-25T08:57:04.938Z,5.88
2018-11-25T08:58:04.827Z,5.96
2018-11-25T08:59:56.664Z,5.99
2018-11-25T09:00:56.584Z,6.03
2018-11-25T09:02:48.342Z,6.14
2018-11-25T09:03:48.253Z,6.06
2018-11-25T09:05:40.016Z,6.25
2018-11-25T09:06:39.942Z,6.13
2018-11-25T09:08:31.799Z,6.17
2018-11-25T09:09:31.676Z,6.25
2018-11-25T09:11:23.486Z,6.17
2018-11-25T09:12:23.405Z,6.21
2018-11-25T09:14:15.239Z,6.28
2018-11-25T09:15:15.159Z,6.19
2018-11-25T09:17:06.962Z,6.25
2018-11-25T09:18:06.893Z,6.28
2018-11-25T09:19:58.749Z,6.30
2018-11-25T09:20:58.625Z,6.30
2018-11-25T09:22:50.434Z,6.33
2018-11-25T09:23:50.364Z,6.38
2018-11-25T09:25:42.149Z,6.39
2018-11-25T09:26:42.047Z,6.45
2018-11-25T09:28:33.889Z,6.36
2018-11-25T09:29:33.788Z,6.24
2018-11-25T09:31:25.547Z,6.08
2018-11-25T09:32:25.486Z,6.05
2018-11-25T09:34:17.273Z,6.16
2018-11-25T09:35:17.178Z,6.21
2018-11-25T09:37:08.965Z,6.36
2018-11-25T09:38:08.883Z,6.40
2018-11-25T09:40:00.736Z,6.46
2018-11-25T09:41:00.658Z,6.45
2018-11-25T09:42:52.393Z,6.42
2018-11-25T09:43:52.328Z,6.45
2018-11-25T09:45:44.108Z,6.57
2018-11-25T09:46:44.027Z,6.50
2018-11-25T09:48:35.831Z,6.55
2018-11-25T09:49:35.761Z,6.64
2018-11-25T09:51:27.553Z,6.78
2018-11-25T09:52:27.507Z,6.75
2018-11-25T09:54:19.246Z,6.68
2018-11-25T09:55:19.184Z,6.78
2018-11-25T09:57:11.023Z,6.68
2018-11-25T09:58:10.898Z,6.64
2018-11-25T10:00:02.673Z,6.82
2018-11-25T10:01:02.575Z,6.73
2018-11-25T10:02:54.313Z,6.78
2018-11-25T10:03:54.295Z,6.81
2018-11-25T10:05:46.044Z,6.75
2018-11-25T10:06:45.928Z,6.79
2018-11-25T10:08:37.752Z,6.73
2018-11-25T10:09:37.675Z,6.61
2018-11-25T10:11:30.122Z,6.63
2018-11-25T10:12:29.450Z,6.75
2018-11-25T10:14:21.279Z,6.76
2018-11-25T10:15:21.194Z,6.76
2018-11-25T10:17:12.984Z,6.79
2018-11-25T10:18:12.915Z,6.82
2018-11-25T10:20:04.718Z,6.73
2018-11-25T10:21:04.630Z,6.94
2018-11-25T10:22:56.467Z,6.90
2018-11-25T10:23:56.381Z,6.97
2018-11-25T10:25:48.292Z,7.04
2018-11-25T10:26:48.198Z,7.08
2018-11-25T10:28:40.338Z,6.99
2018-11-25T10:29:39.933Z,7.01
2018-11-25T10:31:31.725Z,7.04
2018-11-25T10:32:31.686Z,7.04
2018-11-25T10:34:23.414Z,7.08
2018-11-25T10:35:23.333Z,7.08
2018-11-25T10:37:15.156Z,7.16
2018-11-25T10:38:15.079Z,7.15
2018-11-25T10:40:06.888Z,7.19
2018-11-25T10:41:06.823Z,7.16
2018-11-25T10:42:58.644Z,7.23
2018-11-25T10:43:58.574Z,7.26
2018-11-25T10:45:50.310Z,7.29
2018-11-25T10:46:50.235Z,7.34
2018-11-25T10:48:42.060Z,7.51
2018-11-25T10:49:41.963Z,7.51
2018-11-25T10:51:33.767Z,7.62
2018-11-25T10:52:33.686Z,7.81
2018-11-25T10:54:25.556Z,7.79
2018-11-25T10:55:25.510Z,7.91
2018-11-25T10:57:17.236Z,8.03
2018-11-25T10:58:17.166Z,8.06
2018-11-25T11:00:08.958Z,8.07
2018-11-25T11:01:08.865Z,8.06
2018-11-25T11:03:00.647Z,7.96
2018-11-25T11:04:00.582Z,7.81
2018-11-25T11:05:52.396Z,7.82
2018-11-25T11:06:52.350Z,7.73
2018-11-25T11:08:44.142Z,7.45
2018-11-25T11:09:44.071Z,7.50
2018-11-25T11:11:35.892Z,7.41
2018-11-25T11:12:35.798Z,7.33
2018-11-25T11:14:27.580Z,7.48
2018-11-25T11:15:27.523Z,7.48
2018-11-25T11:17:19.306Z,7.50
2018-11-25T11:18:19.200Z,7.47
2018-11-25T11:20:11.015Z,7.48
2018-11-25T11:21:10.876Z,7.57
2018-11-25T11:23:02.708Z,7.50
2018-11-25T11:24:02.670Z,7.37
2018-11-25T11:25:55.047Z,7.44
2018-11-25T11:26:54.942Z,7.52
2018-11-25T11:28:46.690Z,7.45
2018-11-25T11:29:46.621Z,7.48
2018-11-25T11:31:38.403Z,7.39
2018-11-25T11:32:38.323Z,7.42
2018-11-25T11:34:30.162Z,7.26
2018-11-25T11:35:30.008Z,7.27
2018-11-25T11:37:21.790Z,7.07
2018-11-25T11:38:21.740Z,7.04
2018-11-25T11:40:13.448Z,7.18
2018-11-25T11:41:13.397Z,7.21
2018-11-25T11:43:05.167Z,7.32
2018-11-25T11:44:05.113Z,7.18
2018-11-25T11:45:56.893Z,7.19
2018-11-25T11:46:56.794Z,7.18
2018-11-25T11:48:48.664Z,7.23
2018-11-25T11:49:48.514Z,7.23
2018-11-25T11:51:40.280Z,7.14
2018-11-25T11:52:40.192Z,7.21
2018-11-25T11:54:31.981Z,7.12
2018-11-25T11:55:31.907Z,7.08
2018-11-25T11:57:23.684Z,7.07
2018-11-25T11:58:23.597Z,7.09
2018-11-25T12:00:15.409Z,7.11
2018-11-25T12:01:15.315Z,7.18
2018-11-25T12:03:07.075Z,7.12
2018-11-25T12:04:07.003Z,7.08
2018-11-25T12:05:58.779Z,6.96
2018-11-25T12:06:58.679Z,6.97
2018-11-25T12:08:50.450Z,7.04
2018-11-25T12:09:50.390Z,6.99
2018-11-25T12:11:42.175Z,7.08
2018-11-25T12:12:42.111Z,7.12
2018-11-25T12:14:33.915Z,7.19
2018-11-25T12:15:33.835Z,7.19
2018-11-25T12:17:25.631Z,7.04
2018-11-25T12:18:25.555Z,7.00
2018-11-25T12:20:21.213Z,7.09
2018-11-25T12:21:17.266Z,7.09
2018-11-25T12:23:09.058Z,7.08
2018-11-25T12:24:08.955Z,7.14
2018-11-25T12:26:00.959Z,7.11
2018-11-25T12:27:00.756Z,7.04
2018-11-25T12:28:52.619Z,7.08
2018-11-25T12:29:52.575Z,7.11
2018-11-25T12:31:44.372Z,7.07
2018-11-25T12:32:44.310Z,7.07
2018-11-25T12:34:36.126Z,7.11
2018-11-25T12:35:35.993Z,7.11
2018-11-25T12:37:27.876Z,7.05
2018-11-25T12:38:27.784Z,7.04
2018-11-25T12:40:19.667Z,7.11
2018-11-25T12:41:19.586Z,7.08
2018-11-25T12:43:11.307Z,7.07
2018-11-25T12:44:11.236Z,7.12
2018-11-25T12:46:03.079Z,7.00
2018-11-25T12:47:02.989Z,7.12
2018-11-25T12:48:54.861Z,7.04
2018-11-25T12:49:54.754Z,6.97
2018-11-25T12:51:46.669Z,7.09
2018-11-25T12:52:46.619Z,7.08
2018-11-25T12:54:38.657Z,7.07
2018-11-25T12:55:38.558Z,7.12
2018-11-25T12:57:30.413Z,7.08
2018-11-25T12:58:30.367Z,7.15
2018-11-25T13:00:22.195Z,7.04
2018-11-25T13:01:22.032Z,7.09
2018-11-25T13:03:13.928Z,7.11
2018-11-25T13:04:13.759Z,7.12
2018-11-25T13:06:05.698Z,6.99
2018-11-25T13:07:05.681Z,7.04
2018-11-25T13:08:57.713Z,6.97
2018-11-25T13:09:57.650Z,7.04
2018-11-25T13:11:52.489Z,6.99
2018-11-25T13:12:49.403Z,7.05
2018-11-25T13:14:41.307Z,7.00
2018-11-25T13:15:41.194Z,7.05
2018-11-25T13:17:33.038Z,7.08
2018-11-25T13:18:32.905Z,7.01
2018-11-25T13:20:24.837Z,7.11
2018-11-25T13:21:24.654Z,7.12
2018-11-25T13:23:17.402Z,7.14
2018-11-25T13:24:16.971Z,6.99
2018-11-25T13:26:08.681Z,7.01
2018-11-25T13:27:08.624Z,7.00
2018-11-25T13:29:00.537Z,6.99
2018-11-25T13:30:00.418Z,6.97
2018-11-25T13:31:52.323Z,7.07
2018-11-25T13:32:52.248Z,6.97
2018-11-25T13:34:43.975Z,6.97
2018-11-25T13:35:43.884Z,6.97
2018-11-25T13:37:35.757Z,6.99
2018-11-25T13:38:35.650Z,6.97
2018-11-25T13:40:27.548Z,6.99
2018-11-25T13:41:27.492Z,7.00
2018-11-25T13:43:19.279Z,7.00
2018-11-25T13:44:19.241Z,7.08
2018-11-25T13:46:11.013Z,7.00
2018-11-25T13:47:10.927Z,7.07
2018-11-25T13:49:02.739Z,7.09
2018-11-25T13:50:02.660Z,7.05
2018-11-25T13:51:54.629Z,7.16
2018-11-25T13:52:54.530Z,7.01
2018-11-25T13:54:46.365Z,7.01
2018-11-25T13:55:46.271Z,6.94
2018-11-25T13:57:38.071Z,7.01
2018-11-25T13:58:38.100Z,7.00
2018-11-25T14:00:29.860Z,6.90
2018-11-25T14:01:29.734Z,6.89
2018-11-25T14:03:21.786Z,6.89
2018-11-25T14:04:21.515Z,6.69
2018-11-25T14:06:13.336Z,6.72
2018-11-25T14:07:13.203Z,6.76
2018-11-25T14:09:05.113Z,6.89
2018-11-25T14:10:04.934Z,6.71
2018-11-25T14:11:56.725Z,6.78
2018-11-25T14:12:56.709Z,6.78
2018-11-25T14:14:48.488Z,6.76
2018-11-25T14:15:48.360Z,6.78
2018-11-25T14:17:40.147Z,6.81
2018-11-25T14:18:40.066Z,6.78
2018-11-25T14:20:31.871Z,6.82
2018-11-25T14:21:31.806Z,6.81
2018-11-25T14:23:23.622Z,6.78
2018-11-25T14:24:23.525Z,6.76
2018-11-25T14:26:15.374Z,6.78
2018-11-25T14:27:15.261Z,6.81
2018-11-25T14:29:07.222Z,6.81
2018-11-25T14:30:13.196Z,6.81
2018-11-25T14:31:58.984Z,6.78
2018-11-25T14:32:58.829Z,6.78
2018-11-25T14:34:50.643Z,6.76
2018-11-25T14:35:50.610Z,6.87
2018-11-25T14:37:42.559Z,6.89
2018-11-25T14:38:42.316Z,6.81
2018-11-25T14:40:34.072Z,6.72
2018-11-25T14:41:34.045Z,6.78
2018-11-25T14:43:25.810Z,6.75
2018-11-25T14:44:25.730Z,6.75
2018-11-25T14:46:17.735Z,6.81
2018-11-25T14:47:17.924Z,6.81
2018-11-25T14:49:09.443Z,6.68
2018-11-25T14:50:09.373Z,6.72
2018-11-25T14:52:01.226Z,6.65
2018-11-25T14:53:01.097Z,6.72
2018-11-25T14:54:52.907Z,6.78
2018-11-25T14:55:52.788Z,6.75
2018-11-25T14:57:44.825Z,6.81
2018-11-25T14:58:44.655Z,6.63
2018-11-25T15:00:36.488Z,6.75
2018-11-25T15:01:36.439Z,6.72
2018-11-25T15:03:28.363Z,6.71
2018-11-25T15:04:28.155Z,6.65
2018-11-25T15:06:20.094Z,6.75
2018-11-25T15:07:20.032Z,6.75
2018-11-25T15:09:11.837Z,6.72
2018-11-25T15:10:11.728Z,6.61
2018-11-25T15:12:03.701Z,6.61
2018-11-25T15:13:03.538Z,6.57
2018-11-25T15:14:55.417Z,6.57
2018-11-25T15:15:55.399Z,6.60
2018-11-25T15:17:47.186Z,6.60
2018-11-25T15:18:47.050Z,6.63
2018-11-25T15:20:38.831Z,6.68
2018-11-25T15:21:38.757Z,6.63
2018-11-25T15:23:30.591Z,6.57
2018-11-25T15:24:30.549Z,6.58
2018-11-25T15:26:22.477Z,6.57
2018-11-25T15:27:22.340Z,6.58
2018-11-25T15:29:14.203Z,6.58
2018-11-25T15:30:14.090Z,6.60
2018-11-25T15:32:05.925Z,6.60
2018-11-25T15:33:05.804Z,6.63
2018-11-25T15:34:57.643Z,6.40
2018-11-25T15:35:57.558Z,6.54
2018-11-25T15:37:49.335Z,6.57
2018-11-25T15:38:49.330Z,6.53
2018-11-25T15:40:41.270Z,6.50
2018-11-25T15:41:41.096Z,6.48
2018-11-25T15:43:32.971Z,6.63
2018-11-25T15:44:32.853Z,6.60
2018-11-25T15:46:24.659Z,6.53
2018-11-25T15:47:24.554Z,6.57
2018-11-25T15:49:16.371Z,6.45
2018-11-25T15:50:16.299Z,6.50
2018-11-25T15:52:08.191Z,6.60
2018-11-25T15:53:08.125Z,6.53
2018-11-25T15:54:59.983Z,6.48
2018-11-25T15:55:59.885Z,6.48
2018-11-25T15:57:51.899Z,6.38
2018-11-25T15:58:51.728Z,6.39
2018-11-25T16:00:43.498Z,6.40
2018-11-25T16:01:43.431Z,6.39
2018-11-25T16:03:35.552Z,6.39
2018-11-25T16:04:35.451Z,6.43
2018-11-25T16:06:27.284Z,6.39
2018-11-25T16:07:27.161Z,6.36
2018-11-25T16:09:19.080Z,6.36
2018-11-25T16:10:18.933Z,6.42
2018-11-25T16:12:10.688Z,6.36
2018-11-25T16:13:10.809Z,6.36
2018-11-25T16:15:02.378Z,6.36
2018-11-25T16:16:02.333Z,6.51
2018-11-25T16:17:54.188Z,6.43
2018-11-25T16:18:54.053Z,6.51
2018-11-25T16:20:45.776Z,6.48
2018-11-25T16:21:45.700Z,6.48
2018-11-25T16:23:37.632Z,6.48
2018-11-25T16:24:37.695Z,6.48
2018-11-25T16:26:29.254Z,6.50
2018-11-25T16:27:29.161Z,6.50
2018-11-25T16:29:21.183Z,6.45
2018-11-25T16:30:21.553Z,6.46
2018-11-25T16:32:12.919Z,6.51
2018-11-25T16:33:12.701Z,6.43
2018-11-25T16:35:04.533Z,6.43
2018-11-25T16:36:04.476Z,6.46
2018-11-25T16:37:56.247Z,6.51
2018-11-25T16:38:56.167Z,6.45
2018-11-25T16:40:48.125Z,6.54
2018-11-25T16:41:47.970Z,6.36
2018-11-25T16:43:39.811Z,6.38
2018-11-25T16:44:39.705Z,6.39
2018-11-25T16:46:31.517Z,6.25
2018-11-25T16:47:31.726Z,6.32
2018-11-25T16:49:23.363Z,6.32
2018-11-25T16:50:25.367Z,6.28
2018-11-25T16:52:14.953Z,6.35
2018-11-25T16:53:14.869Z,6.27
2018-11-25T16:55:06.667Z,6.32
2018-11-25T16:56:06.568Z,6.33
2018-11-25T16:57:58.539Z,6.33
2018-11-25T16:58:58.502Z,6.39
2018-11-25T17:00:50.712Z,6.40
2018-11-25T17:01:50.594Z,6.33
2018-11-25T17:03:42.623Z,6.38
2018-11-25T17:04:42.384Z,6.30
2018-11-25T17:06:34.388Z,6.36
2018-11-25T17:07:34.185Z,6.40
2018-11-25T17:09:25.977Z,6.36
2018-11-25T17:10:25.897Z,6.38
2018-11-25T17:12:17.738Z,6.32
2018-11-25T17:13:17.620Z,6.38
2018-11-25T17:15:09.546Z,6.27
2018-11-25T17:16:09.748Z,6.25
2018-11-25T17:18:01.425Z,6.32
2018-11-25T17:19:01.334Z,6.40
2018-11-25T17:20:53.101Z,6.25
2018-11-25T17:21:53.116Z,6.28
2018-11-25T17:23:44.885Z,6.32
2018-11-25T17:24:44.857Z,6.30
2018-11-25T17:26:36.901Z,6.32
2018-11-25T17:27:36.604Z,6.32
2018-11-25T17:29:28.488Z,6.06
2018-11-25T17:30:28.315Z,6.17
2018-11-25T17:32:20.078Z,6.24
2018-11-25T17:33:19.964Z,6.17
2018-11-25T17:35:11.725Z,6.16
2018-11-25T17:36:11.627Z,6.10
2018-11-25T17:38:03.483Z,6.01
2018-11-25T17:39:03.541Z,5.98
2018-11-25T17:40:55.259Z,5.99
2018-11-25T17:41:55.199Z,5.98
2018-11-25T17:43:46.982Z,6.06
2018-11-25T17:44:46.857Z,6.10
2018-11-25T17:46:38.617Z,6.13
2018-11-25T17:47:39.063Z,5.96
2018-11-25T17:49:30.368Z,6.10
2018-11-25T17:50:30.261Z,5.98
2018-11-25T17:52:22.318Z,5.93
2018-11-25T17:53:22.256Z,5.96
2018-11-25T17:55:14.206Z,6.01
2018-11-25T17:56:14.099Z,5.99
2018-11-25T17:58:05.978Z,6.06
2018-11-25T17:59:05.795Z,6.13
2018-11-25T18:00:57.648Z,6.17
2018-11-25T18:01:57.548Z,6.10
2018-11-25T18:03:49.455Z,6.16
2018-11-25T18:04:49.282Z,6.10
2018-11-25T18:06:41.180Z,6.25
2018-11-25T18:07:41.035Z,6.10
2018-11-25T18:09:32.945Z,6.02
2018-11-25T18:10:32.784Z,5.96
2018-11-25T18:12:24.712Z,6.06
2018-11-25T18:13:24.522Z,6.02
2018-11-25T18:15:17.263Z,5.98
2018-11-25T18:16:16.805Z,6.02
2018-11-25T18:18:08.557Z,5.90
2018-11-25T18:19:08.626Z,5.93
2018-11-25T18:21:00.388Z,5.95
2018-11-25T18:22:00.299Z,5.88
2018-11-25T18:23:52.181Z,5.92
2018-11-25T18:24:52.142Z,5.96
2018-11-25T18:26:43.863Z,5.93
2018-11-25T18:27:44.038Z,5.98
2018-11-25T18:29:36.008Z,5.98
2018-11-25T18:30:35.650Z,5.88
2018-11-25T18:32:27.522Z,5.92
2018-11-25T18:33:27.352Z,5.98
2018-11-25T18:35:19.518Z,5.95
2018-11-25T18:36:19.107Z,6.01
2018-11-25T18:38:10.954Z,5.99
2018-11-25T18:39:10.864Z,5.98
2018-11-25T18:41:02.588Z,5.95
2018-11-25T18:42:02.558Z,5.92
2018-11-25T18:43:54.325Z,5.99
2018-11-25T18:44:54.191Z,5.99
2018-11-25T18:46:46.988Z,5.99
2018-11-25T18:47:46.009Z,6.01
2018-11-25T18:49:37.673Z,5.93
2018-11-25T18:50:37.647Z,5.93
2018-11-25T18:52:29.490Z,5.92
2018-11-25T18:53:29.846Z,5.96
2018-11-25T18:55:21.119Z,6.08
2018-11-25T18:56:21.098Z,6.06
2018-11-25T18:58:12.907Z,6.02
2018-11-25T18:59:12.795Z,5.98
2018-11-25T19:01:04.698Z,5.95
2018-11-25T19:02:04.563Z,5.96